• Join FlightAware (Why Join?)
  • Login
  • US Flag 
08:00AM EDT


 

Airport Tracker/Info


-or-


 

Live Flight TrackerFlight Track Log ✈ SWA1688 ✈ 06-Jul-2013 ✈ KSTL - KBWI

Flight Track Log - Related Links

Times and Time Zones

All times are in EDT time to prevent confusion due to time zone crossing. See the SWA1688 flight status page for this flight to view local times or setup timezone preferences in your user account.

Time Position Orientation Groundspeed Altitude Reporting Facility
EDT Latitude Longitude Course Direction KTS MPH feet Rate Location/Type
08:27AM 38.7333 -90.3000 83° East 175 201 2,400  Level Gateway (St. Louis) TRACON
08:28AM 38.7333 -90.2167 90° East 265 305 5,100 3,180 Climbing Gateway (St. Louis) TRACON
08:29AM 38.7322 -90.1317 91° East 265 305 8,500 3,240 Climbing Kansas City Center
08:30AM 38.7428 -90.0269 83° East 289 333 11,400 3,000 Climbing Kansas City Center
08:31AM 38.7550 -89.9006 83° East 347 399 14,700 1,920 Climbing Kansas City Center
08:32AM 38.7672 -89.7733 83° East 357 411 15,400 1,980 Climbing Kansas City Center
08:33AM 38.8239 -89.5000 83° East  Level Estimated
08:33AM 38.7806 -89.6408 83° East 363 418 18,800  Level Kansas City Center
08:34AM 38.7939 -89.4967 83° East 379 436 22,100 3,120 Climbing Kansas City Center
08:35AM 38.8100 -89.3683 81° East 367 422 25,200 2,100 Climbing Kansas City Center
08:37AM 38.8272 -89.2361 80° East 377 434 26,400 1,320 Climbing Kansas City Center
08:38AM 38.8461 -89.0861 81° East 422 486 27,900 1,320 Climbing Kansas City Center
08:39AM 38.8642 -88.9489 80° East 437 503 29,200 1,620 Climbing Kansas City Center
08:40AM 38.8861 -88.7878 80° East 454 522 31,300 1,860 Climbing Kansas City Center
08:41AM 38.9056 -88.6153 82° East 445 512 33,000 780 Climbing Kansas City Center
08:42AM 38.9269 -88.4589 80° East 442 509 33,000  Level Kansas City Center
08:43AM 38.9719 -88.3031 70° East 454 522 33,000  Level Kansas City Center
08:44AM 39.0153 -88.1478 70° East 459 528 33,000  Level Kansas City Center
08:45AM 39.0561 -87.9958 71° East 457 526 33,000  Level Indianapolis Center
08:46AM 39.0994 -87.8381 70° East 462 532 33,000  Level Indianapolis Center
08:47AM 39.1281 -87.6789 77° East 455 524 33,000  Level Indianapolis Center
08:48AM 39.1511 -87.5392 78° East 452 520 33,000 600 Level Indianapolis Center
08:49AM 39.1767 -87.3794 78° East 457 526 34,300 1,440 Climbing Indianapolis Center
08:50AM 39.2064 -87.1856 79° East 463 533 36,000 1,260 Climbing Indianapolis Center
08:51AM 39.2319 -87.0233 78° East 465 535 37,000 480 Climbing Indianapolis Center
08:52AM 39.2575 -86.8603 79° East 467 537 37,000  Level Indianapolis Center
08:53AM 39.2825 -86.6972 79° East 469 540 37,000  Level Indianapolis Center
08:54AM 39.3064 -86.5356 79° East 465 535 37,000  Level Indianapolis Center
08:55AM 39.3294 -86.3728 80° East 466 536 37,000  Level Indianapolis Center
08:56AM 39.3542 -86.2106 79° East 466 536 37,000  Level Indianapolis Center
08:57AM 39.3817 -86.0142 80° East 469 540 37,000  Level Indianapolis Center
08:58AM 39.4058 -85.8494 79° East 471 542 37,000  Level Indianapolis Center
08:59AM 39.4308 -85.6822 79° East 477 549 37,000  Level Indianapolis Center
09:00AM 39.4550 -85.5150 79° East 478 550 37,000  Level Indianapolis Center
09:01AM 39.4786 -85.3458 80° East 480 552 37,000  Level Indianapolis Center
09:02AM 39.5025 -85.1756 80° East 483 556 37,000  Level Indianapolis Center
09:03AM 39.5256 -85.0050 80° East 485 558 37,000 420 Level Indianapolis Center
09:04AM 39.5506 -84.8206 80° East 480 552 37,900 960 Climbing Indianapolis Center
09:05AM 39.5731 -84.6508 80° East 475 547 39,000 480 Climbing Indianapolis Center
09:06AM 39.5964 -84.4800 80° East 477 549 39,000  Level Indianapolis Center
09:07AM 39.6183 -84.3075 81° East 480 552 39,000  Level Indianapolis Center
09:08AM 39.6439 -84.1067 81° East 480 552 39,000  Level Indianapolis Center
09:09AM 39.6653 -83.9356 81° East 477 549 39,000  Level Indianapolis Center
09:10AM 39.6869 -83.7633 81° East 480 552 39,000  Level Indianapolis Center
09:11AM 39.7050 -83.5933 82° East 478 550 39,000  Level Indianapolis Center
09:12AM 39.7144 -83.4219 86° East 485 558 39,000  Level Indianapolis Center
09:13AM 39.7253 -83.2519 85° East 478 550 39,000  Level Indianapolis Center
09:14AM 39.7356 -83.0806 85° East 475 547 39,000  Level Indianapolis Center
09:15AM 39.7469 -82.8792 86° East 476 548 39,000  Level Indianapolis Center
09:16AM 39.7569 -82.7072 86° East 475 547 39,000  Level Indianapolis Center
09:17AM 39.7650 -82.5342 86° East 476 548 39,000  Level Indianapolis Center
09:18AM 39.7725 -82.3606 87° East 477 549 39,000  Level Indianapolis Center
09:19AM 39.7808 -82.1878 86° East 476 548 39,000  Level Indianapolis Center
09:20AM 39.7894 -82.0150 86° East 476 548 39,000  Level Indianapolis Center
09:21AM 39.7972 -81.8414 87° East 477 549 39,000  Level Indianapolis Center
09:22AM 39.8047 -81.6692 87° East 475 547 39,000  Level Indianapolis Center
09:23AM 39.8106 -81.4964 87° East 475 547 39,000  Level Indianapolis Center
09:24AM 39.8186 -81.3044 87° East 471 542 39,000  Level Indianapolis Center
09:25AM 39.8244 -81.1344 87° East 470 541 39,000  Level Indianapolis Center
09:26AM 39.8186 -80.9647 93° East 469 540 39,000  Level Indianapolis Center
09:27AM 39.8050 -80.7972 96° East 465 535 39,000  Level Indianapolis Center
09:29AM 39.7922 -80.6286 96° East 467 537 39,000  Level Indianapolis Center
09:29AM 39.7858 -80.5208 94° East 462 532 39,000  Level Cleveland Center
09:30AM 39.7731 -80.3508 96° East 462 532 39,000  Level Cleveland Center
09:31AM 39.7581 -80.1861 97° East 462 532 39,000 -600 Level Cleveland Center
09:33AM 39.7300 -79.8575 96° East 482 555 37,300 -1,380 Descending Washington Center
09:34AM 39.7167 -79.6947 96° East 477 549 34,900 -2,820 Descending Washington Center
09:35AM 39.7014 -79.5292 97° East 465 535 31,800 -3,300 Descending Washington Center
09:36AM 39.6881 -79.3614 96° East 465 535 28,200 -2,700 Descending Washington Center
09:37AM 39.6744 -79.1989 96° East 465 535 26,400 -1,620 Descending Washington Center
09:38AM 39.6539 -79.0442 100° East 453 521 25,000 -720 Descending Washington Center
09:39AM 39.6147 -78.8806 107° East 437 503 25,000 -480 Level Washington Center
09:40AM 39.5831 -78.7364 106° East 431 496 24,100 -1,440 Descending Washington Center
09:41AM 39.5514 -78.5953 106° East 418 481 22,100 -2,040 Descending Washington Center
09:42AM 39.5211 -78.4594 106° East 404 465 20,100 -2,100 Descending Washington Center
09:43AM 39.4911 -78.3236 106° East 399 459 18,000 -2,100 Descending Washington Center
09:44AM 39.4628 -78.1936 106° East 387 445 16,000 -1,500 Descending Washington Center
09:45AM 39.4364 -78.0611 104° East 382 440 15,000 -480 Descending Washington Center
09:46AM 39.4369 -77.9294 90° East 377 434 15,100  Climbing Washington Center
09:47AM 39.4372 -77.7922 90° East 372 428 15,100 -60 Level Washington Center
09:48AM 39.4397 -77.6553 89° East 372 428 15,000 -960 Descending Washington Center
09:49AM 39.4439 -77.5264 88° East 366 421 13,200 -1,920 Descending Washington Center
09:50AM 39.4439 -77.3947 90° East 366 421 11,200 -1,080 Descending Washington Center
09:51AM 39.4542 -77.2686 84° East 361 415 11,100 -120 Descending Washington Center
09:53AM 39.4667 -77.0833 85° East 351 404 11,000 -120 Descending Potomac TRACON
09:54AM 39.4667 -76.9833 90° East 343 395 10,900 -780 Descending Potomac TRACON
09:55AM 39.4667 -76.8667 90° East 315 362 9,600 -1,320 Descending Potomac TRACON
09:55AM 39.4667 -76.7667 90° East 310 357 8,400 -1,440 Descending Potomac TRACON
09:56AM 39.4667 -76.6500 90° East 303 349 6,900 -1,500 Descending Potomac TRACON
09:57AM 39.4000 -76.6000 150° Southeast 279 321 5,500 -1,440 Descending Potomac TRACON
09:59AM 39.3333 -76.5500 150° Southeast 275 316 4,000 -1,020 Descending Potomac TRACON
09:59AM 39.2667 -76.5167 159° South 247 284 3,500 -900 Descending Potomac TRACON
10:00AM 39.2167 -76.4833 153° Southeast 233 268 2,300 -1,080 Descending Potomac TRACON
10:01AM 39.1667 -76.5333 218° Southwest 211 243 1,400 -480 Descending Potomac TRACON
10:02AM 39.1333 -76.5667 218° Southwest 136 157 1,400 -120 Level Potomac TRACON
10:03AM 39.1167 -76.6167 247° West 135 155 1,200 -480 Descending Potomac TRACON
10:04AM 39.1500 -76.6500 322° Northwest 142 163 500 -720 Descending Potomac TRACON
10:06AM 39.1667 -76.6667 270° West  Level FlightAware Approximate
10:13AM 39.1754 -76.6683 270° West  Level Estimated